sensor_id;sensor_type;location;lat;lon;timestamp;P1;durP1;ratioP1;P2;durP2;ratioP2
38224;SDS011;24025;48.138;11.428;2024-03-02T00:00:37;7.87;;;4.70;;
38224;SDS011;24025;48.138;11.428;2024-03-02T00:03:10;6.18;;;5.05;;
38224;SDS011;24025;48.138;11.428;2024-03-02T00:05:51;6.03;;;4.53;;
38224;SDS011;24025;48.138;11.428;2024-03-02T00:08:23;6.13;;;4.72;;
38224;SDS011;24025;48.138;11.428;2024-03-02T00:11:00;5.82;;;4.80;;
38224;SDS011;24025;48.138;11.428;2024-03-02T00:13:34;10.40;;;4.70;;
38224;SDS011;24025;48.138;11.428;2024-03-02T00:16:07;10.30;;;6.78;;
38224;SDS011;24025;48.138;11.428;2024-03-02T00:18:38;8.57;;;6.55;;
38224;SDS011;24025;48.138;11.428;2024-03-02T00:21:10;8.77;;;6.00;;
38224;SDS011;24025;48.138;11.428;2024-03-02T00:23:42;8.65;;;5.43;;
38224;SDS011;24025;48.138;11.428;2024-03-02T00:26:13;7.05;;;5.60;;
38224;SDS011;24025;48.138;11.428;2024-03-02T00:28:47;8.27;;;5.10;;
38224;SDS011;24025;48.138;11.428;2024-03-02T00:31:21;7.03;;;5.07;;
38224;SDS011;24025;48.138;11.428;2024-03-02T00:33:53;6.32;;;4.78;;
38224;SDS011;24025;48.138;11.428;2024-03-02T00:36:25;7.32;;;4.82;;
38224;SDS011;24025;48.138;11.428;2024-03-02T00:38:58;9.10;;;5.07;;
38224;SDS011;24025;48.138;11.428;2024-03-02T00:41:30;6.72;;;4.35;;
38224;SDS011;24025;48.138;11.428;2024-03-02T00:44:06;7.63;;;4.82;;
38224;SDS011;24025;48.138;11.428;2024-03-02T00:46:40;7.53;;;4.78;;
38224;SDS011;24025;48.138;11.428;2024-03-02T00:49:23;5.93;;;4.55;;
38224;SDS011;24025;48.138;11.428;2024-03-02T00:51:55;12.80;;;5.25;;
38224;SDS011;24025;48.138;11.428;2024-03-02T00:54:27;7.82;;;5.45;;
38224;SDS011;24025;48.138;11.428;2024-03-02T00:57:00;6.80;;;5.30;;
38224;SDS011;24025;48.138;11.428;2024-03-02T00:59:32;8.98;;;5.78;;
38224;SDS011;24025;48.138;11.428;2024-03-02T01:02:03;5.90;;;4.60;;
38224;SDS011;24025;48.138;11.428;2024-03-02T01:04:35;9.63;;;5.30;;
38224;SDS011;24025;48.138;11.428;2024-03-02T01:07:07;6.10;;;4.70;;
38224;SDS011;24025;48.138;11.428;2024-03-02T01:09:38;7.40;;;5.07;;
38224;SDS011;24025;48.138;11.428;2024-03-02T01:12:10;8.70;;;5.25;;
38224;SDS011;24025;48.138;11.428;2024-03-02T01:14:42;9.48;;;4.93;;
38224;SDS011;24025;48.138;11.428;2024-03-02T01:17:13;6.45;;;4.95;;
38224;SDS011;24025;48.138;11.428;2024-03-02T01:19:45;8.23;;;4.40;;
38224;SDS011;24025;48.138;11.428;2024-03-02T01:22:17;8.48;;;5.72;;
38224;SDS011;24025;48.138;11.428;2024-03-02T01:24:54;8.25;;;5.18;;
38224;SDS011;24025;48.138;11.428;2024-03-02T01:27:26;7.28;;;5.55;;
38224;SDS011;24025;48.138;11.428;2024-03-02T01:29:58;9.02;;;5.30;;
38224;SDS011;24025;48.138;11.428;2024-03-02T01:32:31;8.48;;;5.55;;
38224;SDS011;24025;48.138;11.428;2024-03-02T01:35:02;7.40;;;5.25;;
38224;SDS011;24025;48.138;11.428;2024-03-02T01:37:34;9.85;;;6.05;;
38224;SDS011;24025;48.138;11.428;2024-03-02T01:40:06;9.10;;;5.55;;
38224;SDS011;24025;48.138;11.428;2024-03-02T01:42:40;8.07;;;5.85;;
38224;SDS011;24025;48.138;11.428;2024-03-02T01:45:12;14.90;;;6.15;;
38224;SDS011;24025;48.138;11.428;2024-03-02T01:47:44;9.85;;;6.35;;
38224;SDS011;24025;48.138;11.428;2024-03-02T01:50:15;6.72;;;5.03;;
38224;SDS011;24025;48.138;11.428;2024-03-02T01:52:55;7.72;;;5.80;;
38224;SDS011;24025;48.138;11.428;2024-03-02T01:55:27;7.72;;;5.60;;
38224;SDS011;24025;48.138;11.428;2024-03-02T01:58:01;8.05;;;5.88;;
38224;SDS011;24025;48.138;11.428;2024-03-02T02:00:33;6.28;;;4.88;;
38224;SDS011;24025;48.138;11.428;2024-03-02T02:03:05;7.50;;;5.38;;
38224;SDS011;24025;48.138;11.428;2024-03-02T02:05:38;7.13;;;5.63;;
38224;SDS011;24025;48.138;11.428;2024-03-02T02:08:09;6.53;;;4.78;;
38224;SDS011;24025;48.138;11.428;2024-03-02T02:10:41;8.63;;;5.53;;
38224;SDS011;24025;48.138;11.428;2024-03-02T02:13:13;6.03;;;4.93;;
38224;SDS011;24025;48.138;11.428;2024-03-02T02:15:44;7.13;;;5.30;;
38224;SDS011;24025;48.138;11.428;2024-03-02T02:18:16;7.35;;;5.50;;
38224;SDS011;24025;48.138;11.428;2024-03-02T02:20:48;7.75;;;5.53;;
38224;SDS011;24025;48.138;11.428;2024-03-02T02:23:19;8.95;;;6.07;;
38224;SDS011;24025;48.138;11.428;2024-03-02T02:25:51;7.95;;;5.65;;
38224;SDS011;24025;48.138;11.428;2024-03-02T02:28:22;9.35;;;5.40;;
38224;SDS011;24025;48.138;11.428;2024-03-02T02:30:54;7.63;;;5.60;;
38224;SDS011;24025;48.138;11.428;2024-03-02T02:33:27;9.18;;;6.40;;
38224;SDS011;24025;48.138;11.428;2024-03-02T02:35:59;9.43;;;6.22;;
38224;SDS011;24025;48.138;11.428;2024-03-02T02:38:31;8.67;;;5.60;;
38224;SDS011;24025;48.138;11.428;2024-03-02T02:41:05;6.97;;;5.20;;
38224;SDS011;24025;48.138;11.428;2024-03-02T02:43:36;8.88;;;5.82;;
38224;SDS011;24025;48.138;11.428;2024-03-02T02:46:08;6.87;;;5.57;;
38224;SDS011;24025;48.138;11.428;2024-03-02T02:48:39;8.40;;;6.35;;
38224;SDS011;24025;48.138;11.428;2024-03-02T02:51:11;9.70;;;6.65;;
38224;SDS011;24025;48.138;11.428;2024-03-02T02:53:43;9.02;;;6.53;;
38224;SDS011;24025;48.138;11.428;2024-03-02T02:56:14;8.95;;;6.18;;
38224;SDS011;24025;48.138;11.428;2024-03-02T02:58:46;9.52;;;6.05;;
38224;SDS011;24025;48.138;11.428;2024-03-02T03:01:18;10.15;;;6.47;;
38224;SDS011;24025;48.138;11.428;2024-03-02T03:03:49;8.85;;;5.95;;
38224;SDS011;24025;48.138;11.428;2024-03-02T03:06:21;8.80;;;6.22;;
38224;SDS011;24025;48.138;11.428;2024-03-02T03:08:53;7.72;;;5.32;;
38224;SDS011;24025;48.138;11.428;2024-03-02T03:11:24;8.50;;;5.88;;
38224;SDS011;24025;48.138;11.428;2024-03-02T03:13:57;10.30;;;6.03;;
38224;SDS011;24025;48.138;11.428;2024-03-02T03:16:31;10.38;;;6.50;;
38224;SDS011;24025;48.138;11.428;2024-03-02T03:19:02;9.77;;;6.15;;
38224;SDS011;24025;48.138;11.428;2024-03-02T03:21:34;9.50;;;6.30;;
38224;SDS011;24025;48.138;11.428;2024-03-02T03:24:06;8.77;;;5.90;;
38224;SDS011;24025;48.138;11.428;2024-03-02T03:26:38;8.75;;;5.97;;
38224;SDS011;24025;48.138;11.428;2024-03-02T03:29:09;10.48;;;6.47;;
38224;SDS011;24025;48.138;11.428;2024-03-02T03:31:41;7.90;;;5.97;;
38224;SDS011;24025;48.138;11.428;2024-03-02T03:34:12;10.17;;;6.10;;
38224;SDS011;24025;48.138;11.428;2024-03-02T03:36:47;9.55;;;6.43;;
38224;SDS011;24025;48.138;11.428;2024-03-02T03:39:18;8.50;;;5.75;;
38224;SDS011;24025;48.138;11.428;2024-03-02T03:41:50;9.90;;;5.82;;
38224;SDS011;24025;48.138;11.428;2024-03-02T03:44:22;9.15;;;6.30;;
38224;SDS011;24025;48.138;11.428;2024-03-02T03:46:53;9.10;;;6.07;;
38224;SDS011;24025;48.138;11.428;2024-03-02T03:49:25;8.47;;;5.90;;
38224;SDS011;24025;48.138;11.428;2024-03-02T03:51:56;8.15;;;5.90;;
38224;SDS011;24025;48.138;11.428;2024-03-02T03:54:28;8.63;;;6.50;;
38224;SDS011;24025;48.138;11.428;2024-03-02T03:57:00;9.43;;;5.80;;
38224;SDS011;24025;48.138;11.428;2024-03-02T03:59:31;10.52;;;6.28;;
38224;SDS011;24025;48.138;11.428;2024-03-02T04:02:03;9.93;;;5.88;;
38224;SDS011;24025;48.138;11.428;2024-03-02T04:04:35;9.70;;;6.18;;
38224;SDS011;24025;48.138;11.428;2024-03-02T04:07:07;9.82;;;6.53;;
38224;SDS011;24025;48.138;11.428;2024-03-02T04:09:38;10.60;;;6.13;;
38224;SDS011;24025;48.138;11.428;2024-03-02T04:12:10;9.30;;;6.50;;
38224;SDS011;24025;48.138;11.428;2024-03-02T04:14:44;13.43;;;7.50;;
38224;SDS011;24025;48.138;11.428;2024-03-02T04:17:15;14.85;;;6.25;;
38224;SDS011;24025;48.138;11.428;2024-03-02T04:19:47;8.53;;;6.37;;
38224;SDS011;24025;48.138;11.428;2024-03-02T04:22:19;12.90;;;6.82;;
38224;SDS011;24025;48.138;11.428;2024-03-02T04:24:55;11.30;;;6.57;;
38224;SDS011;24025;48.138;11.428;2024-03-02T04:27:27;11.60;;;7.00;;
38224;SDS011;24025;48.138;11.428;2024-03-02T04:29:59;14.45;;;7.10;;
38224;SDS011;24025;48.138;11.428;2024-03-02T04:32:31;9.85;;;6.53;;
38224;SDS011;24025;48.138;11.428;2024-03-02T04:35:03;9.52;;;5.90;;
38224;SDS011;24025;48.138;11.428;2024-03-02T04:37:35;11.55;;;5.93;;
38224;SDS011;24025;48.138;11.428;2024-03-02T04:40:07;8.10;;;5.50;;
38224;SDS011;24025;48.138;11.428;2024-03-02T04:42:42;10.00;;;6.38;;
38224;SDS011;24025;48.138;11.428;2024-03-02T04:45:14;10.32;;;6.65;;
38224;SDS011;24025;48.138;11.428;2024-03-02T04:47:46;10.70;;;7.43;;
38224;SDS011;24025;48.138;11.428;2024-03-02T04:50:20;8.43;;;6.07;;
38224;SDS011;24025;48.138;11.428;2024-03-02T04:52:51;10.50;;;6.78;;
38224;SDS011;24025;48.138;11.428;2024-03-02T04:55:23;12.40;;;7.15;;
38224;SDS011;24025;48.138;11.428;2024-03-02T04:58:15;11.37;;;6.73;;
38224;SDS011;24025;48.138;11.428;2024-03-02T05:00:46;12.13;;;7.07;;
38224;SDS011;24025;48.138;11.428;2024-03-02T05:03:18;10.40;;;7.03;;
38224;SDS011;24025;48.138;11.428;2024-03-02T05:05:50;13.68;;;7.03;;
38224;SDS011;24025;48.138;11.428;2024-03-02T05:08:21;9.02;;;6.75;;
38224;SDS011;24025;48.138;11.428;2024-03-02T05:10:53;11.10;;;7.60;;
38224;SDS011;24025;48.138;11.428;2024-03-02T05:13:24;14.45;;;8.85;;
38224;SDS011;24025;48.138;11.428;2024-03-02T05:15:56;16.30;;;7.43;;
38224;SDS011;24025;48.138;11.428;2024-03-02T05:18:28;14.18;;;7.88;;
38224;SDS011;24025;48.138;11.428;2024-03-02T05:20:59;17.55;;;9.70;;
38224;SDS011;24025;48.138;11.428;2024-03-02T05:23:31;18.92;;;8.45;;
38224;SDS011;24025;48.138;11.428;2024-03-02T05:26:02;12.60;;;8.97;;
38224;SDS011;24025;48.138;11.428;2024-03-02T05:28:36;12.13;;;8.10;;
38224;SDS011;24025;48.138;11.428;2024-03-02T05:31:11;17.35;;;10.60;;
38224;SDS011;24025;48.138;11.428;2024-03-02T05:33:43;20.25;;;11.30;;
38224;SDS011;24025;48.138;11.428;2024-03-02T05:36:15;16.35;;;9.85;;
38224;SDS011;24025;48.138;11.428;2024-03-02T05:38:47;12.82;;;8.32;;
38224;SDS011;24025;48.138;11.428;2024-03-02T05:41:18;11.15;;;7.55;;
38224;SDS011;24025;48.138;11.428;2024-03-02T05:43:50;13.48;;;7.55;;
38224;SDS011;24025;48.138;11.428;2024-03-02T05:46:21;12.27;;;8.10;;
38224;SDS011;24025;48.138;11.428;2024-03-02T05:48:53;12.90;;;7.07;;
38224;SDS011;24025;48.138;11.428;2024-03-02T05:51:25;13.73;;;7.70;;
38224;SDS011;24025;48.138;11.428;2024-03-02T05:53:56;11.05;;;7.13;;
38224;SDS011;24025;48.138;11.428;2024-03-02T05:56:28;11.15;;;7.35;;
38224;SDS011;24025;48.138;11.428;2024-03-02T05:59:00;10.57;;;6.70;;
38224;SDS011;24025;48.138;11.428;2024-03-02T06:01:34;13.20;;;7.05;;
38224;SDS011;24025;48.138;11.428;2024-03-02T06:04:06;9.80;;;6.93;;
38224;SDS011;24025;48.138;11.428;2024-03-02T06:06:37;9.98;;;6.50;;
38224;SDS011;24025;48.138;11.428;2024-03-02T06:09:10;12.35;;;7.10;;
38224;SDS011;24025;48.138;11.428;2024-03-02T06:11:44;11.13;;;7.28;;
38224;SDS011;24025;48.138;11.428;2024-03-02T06:14:15;8.65;;;6.65;;
38224;SDS011;24025;48.138;11.428;2024-03-02T06:16:47;10.10;;;6.75;;
38224;SDS011;24025;48.138;11.428;2024-03-02T06:19:18;10.15;;;6.57;;
38224;SDS011;24025;48.138;11.428;2024-03-02T06:21:50;10.48;;;6.68;;
38224;SDS011;24025;48.138;11.428;2024-03-02T06:24:21;12.98;;;7.07;;
38224;SDS011;24025;48.138;11.428;2024-03-02T06:26:53;11.38;;;7.13;;
38224;SDS011;24025;48.138;11.428;2024-03-02T06:29:25;13.65;;;7.03;;
38224;SDS011;24025;48.138;11.428;2024-03-02T06:31:56;11.03;;;6.97;;
38224;SDS011;24025;48.138;11.428;2024-03-02T06:34:28;13.48;;;7.68;;
38224;SDS011;24025;48.138;11.428;2024-03-02T06:36:59;9.57;;;6.63;;
38224;SDS011;24025;48.138;11.428;2024-03-02T06:39:31;14.13;;;8.40;;
38224;SDS011;24025;48.138;11.428;2024-03-02T06:42:05;12.07;;;7.40;;
38224;SDS011;24025;48.138;11.428;2024-03-02T06:44:36;11.18;;;7.75;;
38224;SDS011;24025;48.138;11.428;2024-03-02T06:47:08;13.47;;;7.77;;
38224;SDS011;24025;48.138;11.428;2024-03-02T06:49:39;10.33;;;7.33;;
38224;SDS011;24025;48.138;11.428;2024-03-02T06:52:11;12.17;;;8.13;;
38224;SDS011;24025;48.138;11.428;2024-03-02T06:54:43;10.93;;;7.13;;
38224;SDS011;24025;48.138;11.428;2024-03-02T06:57:14;9.95;;;6.75;;
38224;SDS011;24025;48.138;11.428;2024-03-02T06:59:48;11.48;;;7.32;;
38224;SDS011;24025;48.138;11.428;2024-03-02T07:02:22;12.98;;;7.22;;
38224;SDS011;24025;48.138;11.428;2024-03-02T07:04:54;11.93;;;7.15;;
38224;SDS011;24025;48.138;11.428;2024-03-02T07:07:25;10.90;;;7.55;;
38224;SDS011;24025;48.138;11.428;2024-03-02T07:09:57;12.95;;;7.65;;
38224;SDS011;24025;48.138;11.428;2024-03-02T07:12:29;13.15;;;8.10;;
38224;SDS011;24025;48.138;11.428;2024-03-02T07:15:01;9.07;;;7.10;;
38224;SDS011;24025;48.138;11.428;2024-03-02T07:17:36;12.50;;;8.35;;
38224;SDS011;24025;48.138;11.428;2024-03-02T07:20:08;12.77;;;7.78;;
38224;SDS011;24025;48.138;11.428;2024-03-02T07:22:40;12.70;;;8.00;;
38224;SDS011;24025;48.138;11.428;2024-03-02T07:25:15;14.48;;;8.70;;
38224;SDS011;24025;48.138;11.428;2024-03-02T07:27:49;10.55;;;7.65;;
38224;SDS011;24025;48.138;11.428;2024-03-02T07:32:53;14.07;;;8.20;;
38224;SDS011;24025;48.138;11.428;2024-03-02T07:35:25;14.07;;;8.98;;
38224;SDS011;24025;48.138;11.428;2024-03-02T07:37:59;17.63;;;8.70;;
38224;SDS011;24025;48.138;11.428;2024-03-02T07:40:30;14.90;;;9.57;;
38224;SDS011;24025;48.138;11.428;2024-03-02T07:43:02;14.88;;;9.45;;
38224;SDS011;24025;48.138;11.428;2024-03-02T07:45:34;16.55;;;9.90;;
38224;SDS011;24025;48.138;11.428;2024-03-02T07:48:07;20.33;;;10.40;;
38224;SDS011;24025;48.138;11.428;2024-03-02T07:50:39;19.63;;;11.25;;
38224;SDS011;24025;48.138;11.428;2024-03-02T07:53:11;19.52;;;10.27;;
38224;SDS011;24025;48.138;11.428;2024-03-02T07:55:42;14.55;;;9.82;;
38224;SDS011;24025;48.138;11.428;2024-03-02T07:58:14;17.65;;;9.68;;
38224;SDS011;24025;48.138;11.428;2024-03-02T08:00:46;19.70;;;9.93;;
38224;SDS011;24025;48.138;11.428;2024-03-02T08:03:18;15.38;;;8.80;;
38224;SDS011;24025;48.138;11.428;2024-03-02T08:05:50;13.63;;;8.95;;
38224;SDS011;24025;48.138;11.428;2024-03-02T08:08:21;14.05;;;8.35;;
38224;SDS011;24025;48.138;11.428;2024-03-02T08:10:53;14.43;;;8.65;;
38224;SDS011;24025;48.138;11.428;2024-03-02T08:13:25;16.65;;;9.25;;
38224;SDS011;24025;48.138;11.428;2024-03-02T08:15:57;14.98;;;8.05;;
38224;SDS011;24025;48.138;11.428;2024-03-02T08:18:29;13.15;;;7.85;;
38224;SDS011;24025;48.138;11.428;2024-03-02T08:21:00;11.52;;;7.95;;
38224;SDS011;24025;48.138;11.428;2024-03-02T08:26:04;14.48;;;7.70;;
38224;SDS011;24025;48.138;11.428;2024-03-02T08:28:36;13.30;;;7.82;;
38224;SDS011;24025;48.138;11.428;2024-03-02T08:31:08;11.40;;;7.78;;
38224;SDS011;24025;48.138;11.428;2024-03-02T08:33:41;14.18;;;8.55;;
38224;SDS011;24025;48.138;11.428;2024-03-02T08:36:13;17.60;;;8.50;;
38224;SDS011;24025;48.138;11.428;2024-03-02T08:38:45;11.75;;;7.05;;
38224;SDS011;24025;48.138;11.428;2024-03-02T08:41:17;13.55;;;8.02;;
38224;SDS011;24025;48.138;11.428;2024-03-02T08:43:49;10.85;;;7.47;;
38224;SDS011;24025;48.138;11.428;2024-03-02T08:46:21;12.60;;;8.10;;
38224;SDS011;24025;48.138;11.428;2024-03-02T08:48:52;12.33;;;7.93;;
38224;SDS011;24025;48.138;11.428;2024-03-02T08:51:24;12.10;;;7.25;;
38224;SDS011;24025;48.138;11.428;2024-03-02T08:53:56;17.45;;;6.68;;
38224;SDS011;24025;48.138;11.428;2024-03-02T08:56:29;12.70;;;7.63;;
38224;SDS011;24025;48.138;11.428;2024-03-02T08:59:01;11.25;;;6.85;;
38224;SDS011;24025;48.138;11.428;2024-03-02T09:01:33;12.52;;;6.45;;
38224;SDS011;24025;48.138;11.428;2024-03-02T09:04:05;9.07;;;6.70;;
38224;SDS011;24025;48.138;11.428;2024-03-02T09:06:36;16.08;;;8.00;;
38224;SDS011;24025;48.138;11.428;2024-03-02T09:09:08;13.50;;;6.82;;
38224;SDS011;24025;48.138;11.428;2024-03-02T09:11:39;16.63;;;7.32;;
38224;SDS011;24025;48.138;11.428;2024-03-02T09:14:11;13.75;;;7.75;;
38224;SDS011;24025;48.138;11.428;2024-03-02T09:16:43;10.48;;;7.38;;
38224;SDS011;24025;48.138;11.428;2024-03-02T09:19:15;10.90;;;6.70;;
38224;SDS011;24025;48.138;11.428;2024-03-02T09:24:19;11.00;;;6.93;;
38224;SDS011;24025;48.138;11.428;2024-03-02T09:26:51;10.40;;;7.30;;
38224;SDS011;24025;48.138;11.428;2024-03-02T09:29:22;10.70;;;7.70;;
38224;SDS011;24025;48.138;11.428;2024-03-02T09:31:54;14.80;;;7.78;;
38224;SDS011;24025;48.138;11.428;2024-03-02T09:34:25;14.73;;;7.82;;
38224;SDS011;24025;48.138;11.428;2024-03-02T09:36:57;12.93;;;7.32;;
38224;SDS011;24025;48.138;11.428;2024-03-02T09:39:29;12.05;;;7.00;;
38224;SDS011;24025;48.138;11.428;2024-03-02T09:42:01;11.95;;;7.03;;
38224;SDS011;24025;48.138;11.428;2024-03-02T09:44:35;14.85;;;8.70;;
38224;SDS011;24025;48.138;11.428;2024-03-02T09:47:07;12.15;;;7.22;;
38224;SDS011;24025;48.138;11.428;2024-03-02T09:49:39;11.82;;;7.60;;
38224;SDS011;24025;48.138;11.428;2024-03-02T09:52:11;11.52;;;7.28;;
38224;SDS011;24025;48.138;11.428;2024-03-02T09:54:44;11.10;;;7.50;;
38224;SDS011;24025;48.138;11.428;2024-03-02T09:57:19;13.70;;;7.75;;
38224;SDS011;24025;48.138;11.428;2024-03-02T09:59:50;12.30;;;7.18;;
38224;SDS011;24025;48.138;11.428;2024-03-02T10:02:22;9.93;;;6.93;;
38224;SDS011;24025;48.138;11.428;2024-03-02T10:04:54;11.65;;;7.07;;
38224;SDS011;24025;48.138;11.428;2024-03-02T10:07:26;12.40;;;7.65;;
38224;SDS011;24025;48.138;11.428;2024-03-02T10:09:57;11.35;;;7.93;;
38224;SDS011;24025;48.138;11.428;2024-03-02T10:12:30;14.23;;;7.28;;
38224;SDS011;24025;48.138;11.428;2024-03-02T10:15:05;10.90;;;7.40;;
38224;SDS011;24025;48.138;11.428;2024-03-02T10:17:37;8.68;;;6.78;;
38224;SDS011;24025;48.138;11.428;2024-03-02T10:20:30;12.25;;;6.57;;
38224;SDS011;24025;48.138;11.428;2024-03-02T10:23:14;11.50;;;7.72;;
38224;SDS011;24025;48.138;11.428;2024-03-02T10:25:47;12.98;;;7.45;;
38224;SDS011;24025;48.138;11.428;2024-03-02T10:28:28;8.02;;;6.03;;
38224;SDS011;24025;48.138;11.428;2024-03-02T10:31:01;7.63;;;5.75;;
38224;SDS011;24025;48.138;11.428;2024-03-02T10:33:33;8.77;;;5.63;;
38224;SDS011;24025;48.138;11.428;2024-03-02T10:36:04;8.10;;;5.05;;
38224;SDS011;24025;48.138;11.428;2024-03-02T10:38:36;9.32;;;5.18;;
38224;SDS011;24025;48.138;11.428;2024-03-02T10:41:08;14.93;;;5.20;;
38224;SDS011;24025;48.138;11.428;2024-03-02T10:43:40;7.95;;;6.07;;
38224;SDS011;24025;48.138;11.428;2024-03-02T10:46:11;8.45;;;5.95;;
38224;SDS011;24025;48.138;11.428;2024-03-02T10:48:45;7.70;;;5.47;;
38224;SDS011;24025;48.138;11.428;2024-03-02T10:51:17;7.88;;;5.38;;
38224;SDS011;24025;48.138;11.428;2024-03-02T10:53:49;5.88;;;4.53;;
38224;SDS011;24025;48.138;11.428;2024-03-02T10:56:31;5.78;;;4.50;;
38224;SDS011;24025;48.138;11.428;2024-03-02T11:01:35;7.43;;;4.38;;
38224;SDS011;24025;48.138;11.428;2024-03-02T11:04:10;5.57;;;3.85;;
38224;SDS011;24025;48.138;11.428;2024-03-02T11:06:50;6.93;;;3.75;;
38224;SDS011;24025;48.138;11.428;2024-03-02T11:09:23;7.00;;;4.45;;
38224;SDS011;24025;48.138;11.428;2024-03-02T11:12:02;7.60;;;4.22;;
38224;SDS011;24025;48.138;11.428;2024-03-02T11:14:37;6.00;;;3.97;;
38224;SDS011;24025;48.138;11.428;2024-03-02T11:17:14;4.88;;;3.80;;
38224;SDS011;24025;48.138;11.428;2024-03-02T11:19:47;4.22;;;2.92;;
38224;SDS011;24025;48.138;11.428;2024-03-02T11:22:19;4.00;;;2.80;;
38224;SDS011;24025;48.138;11.428;2024-03-02T11:24:52;5.93;;;3.20;;
38224;SDS011;24025;48.138;11.428;2024-03-02T11:33:06;5.82;;;3.38;;
38224;SDS011;24025;48.138;11.428;2024-03-02T11:35:44;5.20;;;3.33;;
38224;SDS011;24025;48.138;11.428;2024-03-02T11:38:19;4.40;;;3.30;;
38224;SDS011;24025;48.138;11.428;2024-03-02T11:40:51;4.40;;;3.22;;
38224;SDS011;24025;48.138;11.428;2024-03-02T11:43:23;4.75;;;2.88;;
38224;SDS011;24025;48.138;11.428;2024-03-02T11:45:59;4.13;;;2.85;;
38224;SDS011;24025;48.138;11.428;2024-03-02T11:48:32;6.20;;;3.47;;
38224;SDS011;24025;48.138;11.428;2024-03-02T11:51:04;4.35;;;3.00;;
38224;SDS011;24025;48.138;11.428;2024-03-02T11:53:36;6.15;;;3.33;;
38224;SDS011;24025;48.138;11.428;2024-03-02T11:56:10;6.47;;;4.35;;
38224;SDS011;24025;48.138;11.428;2024-03-02T11:58:43;8.65;;;4.78;;
38224;SDS011;24025;48.138;11.428;2024-03-02T12:01:15;9.05;;;5.57;;
38224;SDS011;24025;48.138;11.428;2024-03-02T12:03:48;10.18;;;5.70;;
38224;SDS011;24025;48.138;11.428;2024-03-02T12:06:20;10.20;;;5.50;;
38224;SDS011;24025;48.138;11.428;2024-03-02T12:08:53;8.70;;;5.68;;
38224;SDS011;24025;48.138;11.428;2024-03-02T12:11:26;8.52;;;4.35;;
38224;SDS011;24025;48.138;11.428;2024-03-02T12:13:57;8.10;;;4.55;;
38224;SDS011;24025;48.138;11.428;2024-03-02T12:16:30;12.27;;;6.03;;
38224;SDS011;24025;48.138;11.428;2024-03-02T12:19:01;6.82;;;5.05;;
38224;SDS011;24025;48.138;11.428;2024-03-02T12:21:33;11.30;;;7.03;;
38224;SDS011;24025;48.138;11.428;2024-03-02T12:24:05;12.25;;;7.28;;
38224;SDS011;24025;48.138;11.428;2024-03-02T12:26:36;14.35;;;7.22;;
38224;SDS011;24025;48.138;11.428;2024-03-02T12:29:08;12.77;;;7.30;;
38224;SDS011;24025;48.138;11.428;2024-03-02T12:31:40;11.10;;;7.15;;
38224;SDS011;24025;48.138;11.428;2024-03-02T12:34:19;12.48;;;7.80;;
38224;SDS011;24025;48.138;11.428;2024-03-02T12:39:24;12.32;;;7.28;;
38224;SDS011;24025;48.138;11.428;2024-03-02T12:41:56;12.73;;;7.07;;
38224;SDS011;24025;48.138;11.428;2024-03-02T12:44:27;11.40;;;6.95;;
38224;SDS011;24025;48.138;11.428;2024-03-02T12:46:59;13.13;;;7.57;;
38224;SDS011;24025;48.138;11.428;2024-03-02T12:49:32;11.70;;;7.30;;
38224;SDS011;24025;48.138;11.428;2024-03-02T12:52:04;11.77;;;8.35;;
38224;SDS011;24025;48.138;11.428;2024-03-02T12:54:36;12.95;;;7.85;;
38224;SDS011;24025;48.138;11.428;2024-03-02T12:57:08;16.20;;;8.05;;
38224;SDS011;24025;48.138;11.428;2024-03-02T12:59:39;17.27;;;7.38;;
38224;SDS011;24025;48.138;11.428;2024-03-02T13:02:17;11.20;;;7.50;;
38224;SDS011;24025;48.138;11.428;2024-03-02T13:04:53;11.68;;;7.75;;
38224;SDS011;24025;48.138;11.428;2024-03-02T13:07:28;12.50;;;8.52;;
38224;SDS011;24025;48.138;11.428;2024-03-02T13:10:00;12.55;;;8.05;;
38224;SDS011;24025;48.138;11.428;2024-03-02T13:12:33;13.02;;;9.05;;
38224;SDS011;24025;48.138;11.428;2024-03-02T13:15:06;11.25;;;8.07;;
38224;SDS011;24025;48.138;11.428;2024-03-02T13:17:39;10.80;;;7.88;;
38224;SDS011;24025;48.138;11.428;2024-03-02T13:20:11;11.88;;;8.02;;
38224;SDS011;24025;48.138;11.428;2024-03-02T13:22:45;10.93;;;8.77;;
38224;SDS011;24025;48.138;11.428;2024-03-02T13:25:17;10.68;;;8.95;;
38224;SDS011;24025;48.138;11.428;2024-03-02T13:27:48;9.73;;;7.93;;
38224;SDS011;24025;48.138;11.428;2024-03-02T13:30:20;10.63;;;8.40;;
38224;SDS011;24025;48.138;11.428;2024-03-02T13:32:51;8.70;;;7.60;;
38224;SDS011;24025;48.138;11.428;2024-03-02T13:35:24;9.27;;;8.38;;
38224;SDS011;24025;48.138;11.428;2024-03-02T13:37:56;10.52;;;7.72;;
38224;SDS011;24025;48.138;11.428;2024-03-02T13:40:27;7.80;;;6.80;;
38224;SDS011;24025;48.138;11.428;2024-03-02T13:43:00;8.93;;;7.10;;
38224;SDS011;24025;48.138;11.428;2024-03-02T13:45:32;9.45;;;7.68;;
38224;SDS011;24025;48.138;11.428;2024-03-02T13:48:05;9.70;;;8.70;;
38224;SDS011;24025;48.138;11.428;2024-03-02T13:50:37;9.98;;;7.60;;
38224;SDS011;24025;48.138;11.428;2024-03-02T13:53:08;10.05;;;8.43;;
38224;SDS011;24025;48.138;11.428;2024-03-02T13:55:40;8.50;;;7.60;;
38224;SDS011;24025;48.138;11.428;2024-03-02T13:58:13;10.10;;;8.07;;
38224;SDS011;24025;48.138;11.428;2024-03-02T14:00:45;9.57;;;8.02;;
38224;SDS011;24025;48.138;11.428;2024-03-02T14:03:17;12.63;;;9.40;;
38224;SDS011;24025;48.138;11.428;2024-03-02T14:05:48;9.35;;;8.45;;
38224;SDS011;24025;48.138;11.428;2024-03-02T14:08:22;12.68;;;10.18;;
38224;SDS011;24025;48.138;11.428;2024-03-02T14:10:54;11.55;;;8.80;;
38224;SDS011;24025;48.138;11.428;2024-03-02T14:13:27;10.50;;;9.40;;
38224;SDS011;24025;48.138;11.428;2024-03-02T14:15:58;10.43;;;8.95;;
38224;SDS011;24025;48.138;11.428;2024-03-02T14:18:30;13.80;;;9.82;;
38224;SDS011;24025;48.138;11.428;2024-03-02T14:21:02;11.10;;;9.80;;
38224;SDS011;24025;48.138;11.428;2024-03-02T14:23:35;12.60;;;9.13;;
38224;SDS011;24025;48.138;11.428;2024-03-02T14:26:06;13.75;;;11.18;;
38224;SDS011;24025;48.138;11.428;2024-03-02T14:28:38;13.40;;;10.75;;
38224;SDS011;24025;48.138;11.428;2024-03-02T14:31:21;15.85;;;10.50;;
38224;SDS011;24025;48.138;11.428;2024-03-02T14:38:59;15.18;;;9.80;;
38224;SDS011;24025;48.138;11.428;2024-03-02T14:41:30;14.32;;;9.95;;
38224;SDS011;24025;48.138;11.428;2024-03-02T14:44:02;12.00;;;8.57;;
38224;SDS011;24025;48.138;11.428;2024-03-02T14:46:34;13.25;;;9.02;;
38224;SDS011;24025;48.138;11.428;2024-03-02T14:49:05;12.70;;;8.05;;
38224;SDS011;24025;48.138;11.428;2024-03-02T14:51:37;12.15;;;8.55;;
38224;SDS011;24025;48.138;11.428;2024-03-02T14:54:09;14.50;;;9.00;;
38224;SDS011;24025;48.138;11.428;2024-03-02T14:56:40;9.93;;;7.88;;
38224;SDS011;24025;48.138;11.428;2024-03-02T14:59:12;10.80;;;7.57;;
38224;SDS011;24025;48.138;11.428;2024-03-02T15:01:43;12.95;;;7.45;;
38224;SDS011;24025;48.138;11.428;2024-03-02T15:04:16;11.82;;;7.32;;
38224;SDS011;24025;48.138;11.428;2024-03-02T15:06:52;12.68;;;7.13;;
38224;SDS011;24025;48.138;11.428;2024-03-02T15:09:23;11.23;;;6.97;;
38224;SDS011;24025;48.138;11.428;2024-03-02T15:11:55;12.27;;;7.93;;
38224;SDS011;24025;48.138;11.428;2024-03-02T15:14:27;13.25;;;7.00;;
38224;SDS011;24025;48.138;11.428;2024-03-02T15:16:58;13.13;;;8.75;;
38224;SDS011;24025;48.138;11.428;2024-03-02T15:19:30;13.57;;;8.23;;